Time;durP1;ratioP1;P1;durP2;ratioP2;P2;SDS_P1;SDS_P2;PMS_P1;PMS_P2;Temp;Humidity;BMP_temperature;BMP_pressure;BME280_temperature;BME280_humidity;BME280_pressure;Samples;Min_cycle;Max_cycle;Signal;HPM_P1;HPM_P2
2021/09/02 00:01:16;;;;;;;1.10;0.80;;;24.10;52.40;;;;;;4166094;28;20080;-46
2021/09/02 00:03:18;;;;;;;0.95;0.80;;;24.10;54.90;;;;;;4165991;28;20102;-45
2021/09/02 00:05:21;;;;;;;1.33;0.80;;;24.10;55.70;;;;;;4165803;28;20045;-47
2021/09/02 00:07:23;;;;;;;0.60;0.60;;;24.00;52.90;;;;;;4165837;28;20069;-45
2021/09/02 00:09:26;;;;;;;0.80;0.80;;;24.00;55.50;;;;;;4165802;28;20145;-44
2021/09/02 00:11:28;;;;;;;0.75;0.75;;;24.00;54.90;;;;;;4165977;28;20048;-45
2021/09/02 00:13:30;;;;;;;0.60;0.60;;;24.00;55.40;;;;;;4165950;28;20106;-46
2021/09/02 00:15:32;;;;;;;1.70;0.90;;;24.00;55.80;;;;;;4165687;28;20052;-45
2021/09/02 00:17:34;;;;;;;1.75;1.05;;;24.00;55.60;;;;;;4165638;28;20049;-48
2021/09/02 00:19:36;;;;;;;1.92;1.00;;;24.00;55.50;;;;;;4165455;28;20061;-47
2021/09/02 00:21:38;;;;;;;1.85;0.90;;;24.00;55.60;;;;;;4165701;28;20062;-47
2021/09/02 00:23:40;;;;;;;1.33;0.82;;;24.00;55.60;;;;;;4165687;28;20105;-45
2021/09/02 00:25:42;;;;;;;1.25;1.15;;;24.00;55.70;;;;;;4165637;28;20046;-44
2021/09/02 00:27:44;;;;;;;0.70;0.70;;;24.00;55.10;;;;;;4165523;28;20064;-45
2021/09/02 00:29:46;;;;;;;0.70;0.70;;;24.00;56.00;;;;;;4164077;28;20113;-48
2021/09/02 00:31:49;;;;;;;0.80;0.80;;;24.00;55.50;;;;;;4164871;28;20065;-46
2021/09/02 00:33:51;;;;;;;1.25;0.75;;;24.00;54.90;;;;;;4164628;28;20129;-47
2021/09/02 00:35:53;;;;;;;0.85;0.85;;;24.00;55.30;;;;;;4165307;28;20041;-45
2021/09/02 00:37:55;;;;;;;2.20;0.85;;;23.90;55.60;;;;;;4165448;28;20042;-47
2021/09/02 00:39:57;;;;;;;1.08;0.80;;;24.00;56.10;;;;;;4165443;28;20105;-46
2021/09/02 00:41:59;;;;;;;1.55;1.10;;;23.90;56.20;;;;;;4165368;28;20052;-46
2021/09/02 00:44:01;;;;;;;1.20;0.85;;;24.00;55.00;;;;;;4165394;28;20097;-46
2021/09/02 00:46:03;;;;;;;0.70;0.70;;;23.90;55.10;;;;;;4164556;28;20056;-46
2021/09/02 00:48:05;;;;;;;1.35;1.00;;;24.00;55.30;;;;;;4165055;28;20089;-47
2021/09/02 00:50:08;;;;;;;1.25;0.90;;;23.90;55.70;;;;;;4165127;28;20133;-46
2021/09/02 00:52:16;;;;;;;2.00;0.80;;;24.00;55.30;;;;;;4165282;28;20068;-46
2021/09/02 00:54:18;;;;;;;1.42;1.02;;;23.90;55.40;;;;;;4164337;28;20102;-45
2021/09/02 00:56:20;;;;;;;0.80;0.75;;;23.90;55.20;;;;;;4165049;28;20069;-45
2021/09/02 00:58:22;;;;;;;2.05;0.75;;;24.00;56.00;;;;;;4164321;28;20046;-46
2021/09/02 01:00:24;;;;;;;1.05;0.90;;;24.00;56.00;;;;;;4165115;28;20053;-46
2021/09/02 01:02:28;;;;;;;0.85;0.77;;;24.00;55.10;;;;;;4164913;28;20043;-47
2021/09/02 01:04:30;;;;;;;1.67;1.40;;;24.00;54.50;;;;;;4164595;28;20046;-45
2021/09/02 01:06:32;;;;;;;1.25;1.02;;;24.00;53.60;;;;;;4164798;28;20109;-45
2021/09/02 01:08:36;;;;;;;0.90;0.90;;;24.00;55.60;;;;;;4164739;28;20118;-48
2021/09/02 01:10:40;;;;;;;2.17;0.73;;;24.00;53.90;;;;;;4164765;28;20065;-45
2021/09/02 01:12:47;;;;;;;0.73;0.63;;;24.00;54.80;;;;;;4164758;28;20076;-44
2021/09/02 01:14:49;;;;;;;0.82;0.70;;;24.00;54.40;;;;;;4164879;28;20045;-47
2021/09/02 01:16:55;;;;;;;1.58;1.05;;;23.90;55.20;;;;;;4164731;28;20050;-49
2021/09/02 01:18:57;;;;;;;1.42;1.05;;;24.00;54.40;;;;;;4164797;28;20045;-48
2021/09/02 01:20:59;;;;;;;1.50;1.38;;;24.00;54.70;;;;;;4164542;28;20046;-50
2021/09/02 01:23:03;;;;;;;1.35;1.10;;;24.00;55.00;;;;;;4164671;28;20042;-49
2021/09/02 01:25:07;;;;;;;;;;;24.00;55.10;;;;;;4165130;28;20053;-46
2021/09/02 01:27:09;;;;;;;1.10;0.90;;;24.00;53.40;;;;;;4164660;28;19980;-48
2021/09/02 01:29:11;;;;;;;1.42;1.20;;;24.00;54.00;;;;;;4164702;28;20060;-45
2021/09/02 01:31:15;;;;;;;0.70;0.70;;;24.00;54.40;;;;;;4164842;28;20046;-48
2021/09/02 01:33:17;;;;;;;1.27;1.08;;;24.00;54.40;;;;;;4163820;28;20161;-50
2021/09/02 01:35:21;;;;;;;0.90;0.80;;;24.00;54.30;;;;;;4164471;28;20102;-49
2021/09/02 01:37:35;;;;;;;1.10;1.00;;;24.00;54.50;;;;;;4163707;28;20048;-46
2021/09/02 01:39:38;;;;;;;1.80;1.10;;;24.00;53.30;;;;;;4164780;28;20125;-46
2021/09/02 01:41:40;;;;;;;1.05;0.88;;;24.00;54.40;;;;;;4164560;28;20073;-48
2021/09/02 01:43:42;;;;;;;1.42;1.33;;;24.00;53.70;;;;;;4164170;28;20382;-44
2021/09/02 01:45:44;;;;;;;0.82;0.80;;;24.00;54.40;;;;;;4179994;28;20053;-47
2021/09/02 01:47:47;;;;;;;1.35;1.13;;;24.00;54.60;;;;;;4164403;28;20054;-47
2021/09/02 01:49:49;;;;;;;1.45;0.90;;;24.00;55.00;;;;;;4164510;28;20109;-45
2021/09/02 01:51:51;;;;;;;1.75;1.00;;;23.90;55.40;;;;;;4164571;28;20038;-49
2021/09/02 01:53:53;;;;;;;1.15;0.88;;;24.00;55.40;;;;;;4164444;28;20041;-46
2021/09/02 01:55:56;;;;;;;1.33;1.05;;;24.00;54.80;;;;;;4164260;28;20101;-48
2021/09/02 01:57:58;;;;;;;1.38;1.05;;;24.00;55.60;;;;;;4164384;28;20069;-46
2021/09/02 02:00:00;;;;;;;1.50;1.20;;;23.90;54.00;;;;;;4164388;28;20048;-47
2021/09/02 02:02:02;;;;;;;1.10;1.00;;;24.00;54.00;;;;;;4164534;28;20129;-50
2021/09/02 02:04:04;;;;;;;2.35;1.15;;;24.00;54.40;;;;;;4164352;28;20042;-46
2021/09/02 02:06:06;;;;;;;2.38;1.20;;;24.00;54.40;;;;;;4164303;28;20157;-49
2021/09/02 02:08:15;;;;;;;1.20;1.10;;;24.00;54.10;;;;;;4164075;28;20054;-50
2021/09/02 02:10:20;;;;;;;1.95;1.33;;;24.00;54.30;;;;;;4164226;28;20042;-47
2021/09/02 02:12:22;;;;;;;1.00;0.90;;;24.00;53.70;;;;;;4164349;28;20110;-48
2021/09/02 02:14:24;;;;;;;1.30;1.20;;;24.00;53.50;;;;;;4164134;28;20042;-45
2021/09/02 02:16:26;;;;;;;1.58;1.38;;;24.00;54.10;;;;;;4164095;28;20046;-46
2021/09/02 02:18:28;;;;;;;1.83;1.35;;;24.00;52.60;;;;;;4179686;28;20049;-50
2021/09/02 02:20:30;;;;;;;1.40;1.30;;;24.00;52.40;;;;;;4164115;28;20105;-47
2021/09/02 02:22:32;;;;;;;1.75;1.08;;;24.00;52.30;;;;;;4164073;28;20100;-49
2021/09/02 02:24:34;;;;;;;1.10;0.95;;;24.00;53.90;;;;;;4164186;28;20106;-46
2021/09/02 02:26:36;;;;;;;1.45;1.10;;;24.00;54.00;;;;;;4164184;28;20054;-44
2021/09/02 02:28:38;;;;;;;0.95;0.90;;;24.00;53.60;;;;;;4164323;28;20101;-46
2021/09/02 02:30:40;;;;;;;1.65;1.13;;;24.00;53.10;;;;;;4164341;28;20124;-48
2021/09/02 02:32:44;;;;;;;0.95;0.90;;;24.00;53.20;;;;;;4164091;28;20050;-47
2021/09/02 02:34:46;;;;;;;1.08;0.93;;;24.00;53.40;;;;;;4164143;28;20404;-46
2021/09/02 02:36:48;;;;;;;1.55;1.17;;;24.00;52.40;;;;;;4164140;28;20046;-46
2021/09/02 02:38:50;;;;;;;1.45;1.20;;;24.00;54.10;;;;;;4164131;28;20046;-44
2021/09/02 02:40:52;;;;;;;1.45;1.20;;;24.00;53.90;;;;;;4164112;28;20049;-46
2021/09/02 02:42:54;;;;;;;1.15;1.08;;;24.00;53.80;;;;;;4164104;28;20053;-44
2021/09/02 02:44:56;;;;;;;1.10;0.98;;;24.00;54.00;;;;;;4164029;28;20068;-47
2021/09/02 02:46:58;;;;;;;1.55;0.90;;;24.00;53.50;;;;;;4163917;28;20065;-47
2021/09/02 02:49:00;;;;;;;1.45;0.90;;;24.00;54.80;;;;;;4163897;28;20050;-45
2021/09/02 02:51:02;;;;;;;1.50;0.90;;;24.00;54.10;;;;;;4164148;28;20050;-46
2021/09/02 02:53:04;;;;;;;1.10;1.00;;;24.00;53.30;;;;;;4164059;28;20137;-46
2021/09/02 02:55:07;;;;;;;1.33;1.23;;;24.00;52.80;;;;;;4163178;28;20046;-45
2021/09/02 02:57:09;;;;;;;1.80;1.02;;;24.00;53.70;;;;;;4166875;28;20545;-47
2021/09/02 02:59:12;;;;;;;1.20;1.05;;;24.00;54.30;;;;;;4167035;28;20105;-45
2021/09/02 03:01:15;;;;;;;0.85;0.85;;;24.00;52.80;;;;;;4166135;28;20052;-44
2021/09/02 03:03:17;;;;;;;2.05;0.80;;;24.00;53.60;;;;;;4166890;28;20110;-44
2021/09/02 03:05:19;;;;;;;1.30;1.10;;;24.00;52.80;;;;;;4166997;28;20058;-44
2021/09/02 03:07:21;;;;;;;1.52;0.93;;;24.00;53.00;;;;;;4166893;28;20046;-44
2021/09/02 03:09:23;;;;;;;1.45;1.30;;;24.00;53.80;;;;;;4165867;28;20037;-45
2021/09/02 03:11:25;;;;;;;1.60;1.50;;;24.00;53.90;;;;;;4166764;28;20049;-46
2021/09/02 03:13:27;;;;;;;1.67;1.30;;;24.00;53.10;;;;;;4166842;28;20053;-44
2021/09/02 03:15:30;;;;;;;1.55;0.95;;;23.90;53.80;;;;;;4166846;28;20052;-47
2021/09/02 03:17:34;;;;;;;1.98;1.48;;;24.00;54.60;;;;;;4166447;28;20049;-50
2021/09/02 03:19:36;;;;;;;1.02;0.90;;;24.00;53.00;;;;;;4166727;28;20049;-48
2021/09/02 03:21:38;;;;;;;1.73;1.23;;;24.00;53.70;;;;;;4166678;28;20073;-46
2021/09/02 03:23:40;;;;;;;1.63;1.10;;;23.90;53.20;;;;;;4166615;28;20041;-49
2021/09/02 03:25:42;;;;;;;2.35;1.23;;;24.00;52.90;;;;;;4166787;28;20078;-46
2021/09/02 03:27:44;;;;;;;2.85;1.88;;;23.90;52.40;;;;;;4166680;28;20042;-47
2021/09/02 03:29:46;;;;;;;2.38;1.05;;;24.00;52.80;;;;;;4166549;28;20399;-48
2021/09/02 03:31:48;;;;;;;1.55;1.00;;;23.90;53.00;;;;;;4166492;28;20050;-47
2021/09/02 03:33:50;;;;;;;1.33;1.08;;;24.00;52.80;;;;;;4166401;28;20056;-47
2021/09/02 03:35:52;;;;;;;1.30;1.05;;;24.00;52.00;;;;;;4166663;28;20049;-47
2021/09/02 03:37:54;;;;;;;1.88;1.27;;;24.00;52.80;;;;;;4166457;28;20120;-47
2021/09/02 03:39:56;;;;;;;1.42;1.33;;;24.00;52.20;;;;;;4166446;28;20056;-47
2021/09/02 03:41:58;;;;;;;1.27;1.10;;;24.00;52.30;;;;;;4166292;28;20077;-47
2021/09/02 03:44:00;;;;;;;1.30;1.00;;;24.00;54.00;;;;;;4166280;28;20042;-47
2021/09/02 03:46:02;;;;;;;1.38;1.25;;;24.00;52.50;;;;;;4166497;28;20093;-47
2021/09/02 03:48:05;;;;;;;2.20;1.27;;;24.00;52.50;;;;;;4166119;28;20057;-48
2021/09/02 03:50:07;;;;;;;1.33;1.08;;;24.00;52.60;;;;;;4166286;28;20118;-46
2021/09/02 03:52:10;;;;;;;2.28;1.35;;;24.00;52.50;;;;;;4166163;28;20097;-47
2021/09/02 03:54:12;;;;;;;0.80;0.80;;;23.90;52.90;;;;;;4166186;28;20050;-46
2021/09/02 03:56:13;;;;;;;2.15;1.30;;;23.90;52.40;;;;;;4166122;28;20101;-47
2021/09/02 03:58:15;;;;;;;1.55;1.13;;;24.00;52.50;;;;;;4166244;28;20097;-48
2021/09/02 04:00:18;;;;;;;1.30;1.20;;;24.00;53.10;;;;;;4166177;28;20102;-46
2021/09/02 04:02:20;;;;;;;1.02;0.85;;;24.00;51.90;;;;;;4165926;28;20097;-44
2021/09/02 04:04:22;;;;;;;1.63;1.20;;;24.00;52.40;;;;;;4165851;28;20042;-46
2021/09/02 04:06:24;;;;;;;2.63;1.35;;;24.00;51.80;;;;;;4165576;28;20057;-46
2021/09/02 04:08:26;;;;;;;4.22;1.17;;;24.00;51.90;;;;;;4165172;28;20105;-48
2021/09/02 04:10:28;;;;;;;2.20;1.25;;;24.00;52.00;;;;;;4165203;28;20113;-46
2021/09/02 04:12:30;;;;;;;1.50;1.35;;;24.00;52.60;;;;;;4165969;28;20069;-48
2021/09/02 04:14:32;;;;;;;1.67;1.10;;;24.00;51.90;;;;;;4165895;28;20042;-47
2021/09/02 04:16:34;;;;;;;0.90;0.88;;;24.00;52.00;;;;;;4165728;28;20054;-47
2021/09/02 04:18:37;;;;;;;2.15;0.95;;;24.00;52.20;;;;;;4165619;28;20101;-48
2021/09/02 04:20:39;;;;;;;1.27;1.10;;;23.90;52.30;;;;;;4165790;28;20101;-48
2021/09/02 04:22:41;;;;;;;4.53;1.20;;;23.90;51.90;;;;;;4165864;28;20128;-47
2021/09/02 04:24:43;;;;;;;1.13;1.02;;;24.00;51.90;;;;;;4165716;28;20061;-47
2021/09/02 04:26:45;;;;;;;1.88;1.45;;;24.00;52.60;;;;;;4165629;28;20042;-47
2021/09/02 04:28:47;;;;;;;1.63;1.17;;;24.00;51.90;;;;;;4165577;28;20110;-48
2021/09/02 04:30:49;;;;;;;2.80;1.33;;;24.00;51.80;;;;;;4165564;28;20114;-49
2021/09/02 04:32:51;;;;;;;1.67;1.50;;;24.00;52.00;;;;;;4165600;28;20077;-47
2021/09/02 04:34:53;;;;;;;4.28;1.25;;;23.90;51.70;;;;;;4165472;28;20042;-47
2021/09/02 04:36:55;;;;;;;2.10;1.30;;;24.00;51.90;;;;;;4165364;28;20052;-46
2021/09/02 04:38:57;;;;;;;1.27;1.10;;;24.00;51.90;;;;;;4165475;28;20050;-47
2021/09/02 04:40:59;;;;;;;1.70;1.20;;;24.00;52.30;;;;;;4165306;28;20056;-47
2021/09/02 04:43:01;;;;;;;2.38;1.35;;;24.00;51.90;;;;;;4165522;28;20041;-49
2021/09/02 04:45:04;;;;;;;1.30;1.02;;;24.00;52.60;;;;;;4165420;28;20065;-49
2021/09/02 04:47:07;;;;;;;2.38;1.23;;;23.90;52.30;;;;;;4164892;28;20054;-47
2021/09/02 04:49:09;;;;;;;1.70;1.20;;;24.00;51.90;;;;;;4165169;28;20124;-49
2021/09/02 04:51:11;;;;;;;1.83;1.20;;;24.00;52.40;;;;;;4165251;28;20118;-47
2021/09/02 04:53:14;;;;;;;1.65;1.38;;;23.90;51.80;;;;;;4165349;28;20060;-45
2021/09/02 04:55:16;;;;;;;1.40;1.00;;;23.90;52.10;;;;;;4165417;28;20073;-51
2021/09/02 04:57:19;;;;;;;1.15;1.05;;;24.00;52.00;;;;;;4165022;28;20056;-49
2021/09/02 04:59:21;;;;;;;2.58;1.73;;;24.00;52.00;;;;;;4165135;28;20065;-47
2021/09/02 05:01:23;;;;;;;2.45;1.42;;;24.00;52.10;;;;;;4164954;28;20046;-45
2021/09/02 05:03:25;;;;;;;1.17;1.10;;;23.90;52.20;;;;;;4165184;28;20068;-46
2021/09/02 05:05:27;;;;;;;1.67;1.13;;;24.00;52.80;;;;;;4164379;28;20104;-48
2021/09/02 05:07:33;;;;;;;4.20;2.10;;;24.00;54.60;;;;;;4165146;28;20049;-46
2021/09/02 05:09:35;;;;;;;1.80;1.45;;;24.00;52.70;;;;;;4165184;28;20102;-46
2021/09/02 05:11:48;;;;;;;1.73;1.38;;;24.00;52.30;;;;;;4164947;28;20076;-45
2021/09/02 05:13:50;;;;;;;2.25;1.63;;;23.90;52.40;;;;;;4165064;28;20053;-46
2021/09/02 05:15:52;;;;;;;1.90;1.63;;;24.00;53.10;;;;;;4164917;28;20423;-45
2021/09/02 05:17:54;;;;;;;4.55;1.88;;;24.00;52.10;;;;;;4164145;28;20046;-44
2021/09/02 05:19:56;;;;;;;2.35;1.80;;;23.90;52.00;;;;;;4164594;28;20529;-46
2021/09/02 05:21:58;;;;;;;2.25;1.88;;;24.00;52.50;;;;;;4164787;28;20038;-48
2021/09/02 05:24:00;;;;;;;3.10;1.55;;;24.00;51.90;;;;;;4164913;28;20065;-45
2021/09/02 05:26:02;;;;;;;2.42;1.80;;;24.00;52.00;;;;;;4164883;28;20428;-45
2021/09/02 05:28:04;;;;;;;2.85;1.73;;;24.00;51.90;;;;;;4164811;28;20069;-45
2021/09/02 05:30:10;;;;;;;3.30;1.50;;;24.00;51.90;;;;;;4164759;28;20084;-47
2021/09/02 05:32:12;;;;;;;2.15;1.90;;;24.00;51.90;;;;;;4164608;28;20052;-47
2021/09/02 05:34:15;;;;;;;4.43;1.75;;;24.00;51.90;;;;;;4163539;28;20069;-46
2021/09/02 05:36:17;;;;;;;3.28;1.55;;;24.00;51.90;;;;;;4164752;28;20101;-45
2021/09/02 05:38:19;;;;;;;4.90;2.00;;;24.00;52.10;;;;;;4164677;28;20042;-44
2021/09/02 05:40:21;;;;;;;2.72;1.50;;;24.00;52.80;;;;;;4164478;28;20094;-46
2021/09/02 05:42:23;;;;;;;3.97;1.92;;;24.00;53.20;;;;;;4163576;28;20113;-45
2021/09/02 05:44:25;;;;;;;4.85;2.00;;;24.00;52.50;;;;;;4164523;28;20052;-44
2021/09/02 05:46:27;;;;;;;2.35;2.03;;;23.90;52.10;;;;;;4164338;28;20097;-47
2021/09/02 05:48:29;;;;;;;1.80;1.40;;;24.00;52.40;;;;;;4164686;28;20050;-45
2021/09/02 05:50:31;;;;;;;2.50;1.40;;;24.00;52.50;;;;;;4164462;28;20049;-45
2021/09/02 05:52:33;;;;;;;2.25;1.70;;;24.00;53.60;;;;;;4164408;28;20041;-48
2021/09/02 05:54:35;;;;;;;2.67;1.58;;;24.00;52.70;;;;;;4164438;28;20069;-45
2021/09/02 05:56:37;;;;;;;3.72;1.95;;;23.90;52.30;;;;;;4164456;28;20056;-45
2021/09/02 05:58:39;;;;;;;1.70;1.60;;;23.90;52.90;;;;;;4164365;28;20097;-45
2021/09/02 06:00:41;;;;;;;4.38;1.50;;;24.00;52.40;;;;;;4164401;28;20106;-45
2021/09/02 06:02:44;;;;;;;3.08;1.88;;;23.90;52.70;;;;;;4164358;28;20038;-48
2021/09/02 06:04:46;;;;;;;3.72;2.47;;;23.90;52.70;;;;;;4164321;28;20042;-44
2021/09/02 06:06:48;;;;;;;4.22;2.22;;;24.00;52.70;;;;;;4164310;28;20080;-44
2021/09/02 06:08:50;;;;;;;2.20;1.70;;;23.90;52.70;;;;;;4164392;28;20056;-47
2021/09/02 06:10:52;;;;;;;8.43;2.42;;;24.00;53.10;;;;;;4164384;28;20109;-47
2021/09/02 06:12:54;;;;;;;2.88;2.10;;;23.90;52.90;;;;;;4164247;28;20070;-45
2021/09/02 06:14:56;;;;;;;2.25;1.75;;;23.90;53.20;;;;;;4164372;28;20065;-47
2021/09/02 06:16:58;;;;;;;3.22;2.05;;;23.90;53.00;;;;;;4164020;28;20049;-45
2021/09/02 06:19:00;;;;;;;5.20;2.08;;;23.90;53.50;;;;;;4164248;28;20046;-45
2021/09/02 06:21:02;;;;;;;3.40;2.00;;;23.90;52.80;;;;;;4164389;28;20065;-45
2021/09/02 06:23:04;;;;;;;4.15;2.13;;;23.90;54.00;;;;;;4164355;28;20755;-45
2021/09/02 06:25:08;;;;;;;4.70;2.63;;;24.00;52.90;;;;;;4164082;28;20101;-45
2021/09/02 06:27:10;;;;;;;2.53;2.33;;;24.00;52.90;;;;;;4146923;28;20050;-49
2021/09/02 06:29:12;;;;;;;5.03;2.25;;;24.00;52.80;;;;;;4163131;28;20050;-44
2021/09/02 06:31:14;;;;;;;4.07;2.33;;;24.00;52.60;;;;;;4167074;28;20080;-44
2021/09/02 06:33:17;;;;;;;2.58;2.33;;;23.90;52.70;;;;;;4167324;28;20034;-47
2021/09/02 06:35:19;;;;;;;5.30;2.28;;;23.90;52.70;;;;;;4167179;28;20109;-48
2021/09/02 06:37:21;;;;;;;8.45;2.10;;;24.00;52.90;;;;;;4167132;28;20038;-44
2021/09/02 06:39:23;;;;;;;3.95;2.13;;;24.00;52.80;;;;;;4167324;28;20049;-48
2021/09/02 06:41:25;;;;;;;4.15;2.20;;;23.90;52.90;;;;;;4167279;28;20124;-45
2021/09/02 06:43:27;;;;;;;6.05;2.25;;;24.00;52.80;;;;;;4167347;28;20042;-44
2021/09/02 06:45:29;;;;;;;3.33;2.10;;;24.00;52.90;;;;;;4167240;28;20061;-46
2021/09/02 06:47:31;;;;;;;2.80;2.10;;;24.00;52.90;;;;;;4167019;28;20065;-46
2021/09/02 06:49:33;;;;;;;5.22;1.90;;;24.00;53.10;;;;;;4167045;28;20076;-45
2021/09/02 06:51:37;;;;;;;3.28;1.98;;;24.00;53.10;;;;;;4166974;28;20050;-48
2021/09/02 06:53:39;;;;;;;4.20;1.42;;;24.00;53.20;;;;;;4166993;28;20045;-49
2021/09/02 06:55:41;;;;;;;2.75;2.03;;;24.00;53.30;;;;;;4167180;28;20049;-45
2021/09/02 06:57:43;;;;;;;4.07;1.98;;;24.00;53.50;;;;;;4167045;28;20396;-45
2021/09/02 06:59:45;;;;;;;3.72;2.47;;;24.00;53.30;;;;;;4149864;28;20114;-48
2021/09/02 07:01:48;;;;;;;3.67;1.50;;;24.00;53.20;;;;;;4166844;28;20705;-45
2021/09/02 07:03:50;;;;;;;2.58;2.03;;;24.00;53.40;;;;;;4166900;28;20041;-47
2021/09/02 07:05:53;;;;;;;3.08;1.90;;;24.00;53.20;;;;;;4166834;28;20073;-45
2021/09/02 07:07:55;;;;;;;4.82;2.22;;;24.00;53.00;;;;;;4166861;28;20041;-45
2021/09/02 07:10:09;;;;;;;2.92;2.17;;;24.00;53.00;;;;;;4166625;28;20046;-44
2021/09/02 07:12:11;;;;;;;2.33;1.88;;;24.00;53.10;;;;;;4166567;28;20050;-45
2021/09/02 07:14:13;;;;;;;2.92;2.30;;;24.00;53.40;;;;;;4166690;28;20554;-45
2021/09/02 07:16:16;;;;;;;3.63;2.42;;;24.00;53.00;;;;;;4166603;28;20042;-50
2021/09/02 07:18:18;;;;;;;4.97;2.00;;;24.00;53.40;;;;;;4181750;28;20140;-48
2021/09/02 07:20:20;;;;;;;2.85;2.00;;;24.00;53.20;;;;;;4166353;28;20052;-49
2021/09/02 07:22:22;;;;;;;4.35;2.38;;;24.00;53.30;;;;;;4166340;28;20048;-46
2021/09/02 07:24:24;;;;;;;2.90;1.70;;;24.00;52.80;;;;;;4165753;28;20054;-48
2021/09/02 07:26:26;;;;;;;4.15;2.17;;;24.00;52.90;;;;;;4166686;28;20102;-50
2021/09/02 07:28:28;;;;;;;2.10;1.90;;;24.00;53.00;;;;;;4166510;28;20204;-46
2021/09/02 07:30:30;;;;;;;5.15;2.17;;;24.00;52.70;;;;;;4165625;28;20076;-48
2021/09/02 07:32:32;;;;;;;5.80;2.22;;;24.00;53.50;;;;;;4166545;28;20105;-48
2021/09/02 07:34:34;;;;;;;3.92;1.88;;;24.00;52.90;;;;;;4166551;28;20057;-47
2021/09/02 07:36:37;;;;;;;2.85;2.38;;;24.00;52.80;;;;;;4166615;28;20137;-48
2021/09/02 07:38:44;;;;;;;3.67;2.30;;;24.00;53.00;;;;;;4166426;28;20046;-49
2021/09/02 07:40:47;;;;;;;5.05;2.00;;;24.00;53.00;;;;;;4166257;28;20088;-48
2021/09/02 07:43:02;;;;;;;3.30;2.30;;;24.00;52.70;;;;;;4165948;28;20042;-49
2021/09/02 07:45:05;;;;;;;4.15;2.22;;;24.00;52.70;;;;;;4164961;28;20045;-50
2021/09/02 07:47:10;;;;;;;2.58;2.38;;;24.00;53.00;;;;;;4165139;28;20130;-46
2021/09/02 07:49:12;;;;;;;3.38;2.80;;;24.00;52.70;;;;;;4165310;28;20045;-46
2021/09/02 07:51:16;;;;;;;4.25;2.60;;;24.00;53.00;;;;;;4148848;28;20053;-46
2021/09/02 07:53:19;;;;;;;4.53;2.47;;;24.00;52.70;;;;;;4165895;28;20113;-45
2021/09/02 07:55:21;;;;;;;2.78;2.33;;;24.00;52.70;;;;;;4148752;28;20057;-45
2021/09/02 07:57:24;;;;;;;3.85;2.22;;;24.00;52.60;;;;;;4148740;28;20050;-45
2021/09/02 07:59:26;;;;;;;3.50;2.58;;;24.00;52.50;;;;;;4148328;28;20054;-47
2021/09/02 08:01:29;;;;;;;2.63;2.38;;;24.00;53.00;;;;;;4148787;28;20068;-46
2021/09/02 08:03:32;;;;;;;4.80;2.35;;;24.00;52.50;;;;;;4164833;28;20073;-46
2021/09/02 08:05:35;;;;;;;2.97;2.20;;;24.00;52.50;;;;;;4181032;28;20061;-48
2021/09/02 08:07:46;;;;;;;4.15;2.20;;;24.00;53.10;;;;;;4164724;28;20046;-48
2021/09/02 08:09:50;;;;;;;2.83;2.50;;;24.00;52.70;;;;;;4164564;28;20096;-46
2021/09/02 08:11:52;;;;;;;2.45;2.08;;;24.00;52.30;;;;;;4165589;28;20056;-50
2021/09/02 08:13:56;;;;;;;2.35;2.15;;;24.00;52.40;;;;;;4164524;28;20050;-49
2021/09/02 08:15:58;;;;;;;2.72;2.53;;;24.00;52.40;;;;;;4148338;28;20089;-48
2021/09/02 08:18:03;;;;;;;3.88;2.40;;;24.00;52.60;;;;;;4164421;28;20113;-47
2021/09/02 08:20:06;;;;;;;2.92;2.28;;;24.00;52.30;;;;;;4148462;28;20173;-51
2021/09/02 08:22:09;;;;;;;3.13;2.42;;;24.00;52.40;;;;;;4164684;28;20077;-48
2021/09/02 08:24:12;;;;;;;3.10;2.50;;;24.00;52.60;;;;;;4164585;28;20042;-52
2021/09/02 08:26:14;;;;;;;2.97;2.25;;;24.00;52.40;;;;;;4148269;28;20076;-47
2021/09/02 08:28:17;;;;;;;2.65;2.45;;;24.00;52.20;;;;;;4180616;28;20046;-46
2021/09/02 08:30:22;;;;;;;5.35;2.53;;;24.00;52.20;;;;;;4165102;28;20054;-47
2021/09/02 08:32:26;;;;;;;3.15;2.63;;;24.00;52.10;;;;;;4164239;28;20073;-47
2021/09/02 08:34:28;;;;;;;4.68;2.70;;;24.00;52.20;;;;;;4147999;28;20065;-49
2021/09/02 08:36:31;;;;;;;2.80;2.50;;;24.00;52.10;;;;;;4165380;28;20101;-47
2021/09/02 08:38:36;;;;;;;3.53;2.80;;;24.00;52.10;;;;;;4148077;28;20062;-46
2021/09/02 08:40:41;;;;;;;3.08;2.78;;;24.00;52.20;;;;;;4148139;28;20481;-47
2021/09/02 08:42:45;;;;;;;;;;;24.00;52.20;;;;;;4148358;28;20082;-45
2021/09/02 08:44:47;;;;;;;2.92;2.40;;;24.00;52.10;;;;;;4180458;28;19959;-49
2021/09/02 08:46:50;;;;;;;3.17;2.50;;;24.00;52.20;;;;;;4163917;28;20084;-46
2021/09/02 08:48:53;;;;;;;5.15;2.63;;;24.00;52.10;;;;;;4164199;28;20050;-46
2021/09/02 08:50:56;;;;;;;3.70;2.42;;;24.00;52.10;;;;;;4147678;28;20054;-47
2021/09/02 08:53:00;;;;;;;3.67;2.70;;;24.00;52.10;;;;;;4163232;28;20171;-47
2021/09/02 08:55:03;;;;;;;4.15;3.00;;;24.00;52.10;;;;;;4164732;28;20053;-47
2021/09/02 08:57:06;;;;;;;5.05;2.97;;;24.00;52.20;;;;;;4164070;28;20052;-47
2021/09/02 08:59:08;;;;;;;3.20;2.47;;;24.00;52.20;;;;;;4163722;28;20065;-45
2021/09/02 09:01:11;;;;;;;2.85;2.50;;;24.00;52.10;;;;;;4147573;28;20844;-47
2021/09/02 09:03:18;;;;;;;3.88;3.10;;;24.00;52.40;;;;;;4147805;28;20050;-47
2021/09/02 09:05:21;;;;;;;2.50;2.10;;;24.00;52.10;;;;;;4163828;28;20069;-47
2021/09/02 09:07:34;;;;;;;3.60;2.67;;;24.00;52.20;;;;;;4147610;28;20054;-45
2021/09/02 09:09:36;;;;;;;2.72;2.42;;;24.00;52.10;;;;;;4163686;28;20073;-49
2021/09/02 09:11:49;;;;;;;2.85;2.35;;;24.00;52.10;;;;;;4164734;28;20058;-52
2021/09/02 09:14:06;;;;;;;3.25;2.38;;;24.00;52.30;;;;;;4163615;28;20064;-49
2021/09/02 09:16:09;;;;;;;2.63;2.30;;;24.00;52.10;;;;;;4147453;28;20409;-48
2021/09/02 09:18:15;;;;;;;2.90;2.60;;;24.00;52.30;;;;;;4163448;28;20502;-48
2021/09/02 09:20:21;;;;;;;3.38;2.67;;;24.00;52.40;;;;;;4163487;28;20041;-49
2021/09/02 09:22:29;;;;;;;2.38;2.17;;;24.00;52.00;;;;;;4163666;28;20069;-48
2021/09/02 09:25:05;;;;;;;2.42;2.10;;;24.00;52.10;;;;;;4147262;28;20061;-48
2021/09/02 09:27:09;;;;;;;2.10;1.90;;;24.00;52.00;;;;;;4169044;28;20057;-49
2021/09/02 09:29:18;;;;;;;4.50;2.25;;;24.00;52.20;;;;;;4147031;28;20074;-47
2021/09/02 09:31:24;;;;;;;3.47;2.55;;;24.00;52.20;;;;;;4163558;28;20074;-49
2021/09/02 09:33:27;;;;;;;3.28;2.67;;;24.00;51.90;;;;;;4163555;28;20101;-53
2021/09/02 09:35:39;;;;;;;2.50;2.30;;;24.00;51.90;;;;;;4163275;28;20049;-54
2021/09/02 09:37:42;;;;;;;3.25;2.08;;;24.00;52.20;;;;;;4147249;28;20046;-51
2021/09/02 09:39:45;;;;;;;2.42;1.90;;;24.00;51.80;;;;;;4163436;28;20042;-56
2021/09/02 09:41:49;;;;;;;5.72;2.47;;;24.00;52.00;;;;;;4163550;28;20124;-51
2021/09/02 09:44:19;;;;;;;3.45;2.90;;;24.00;51.70;;;;;;4147356;28;20050;-54
2021/09/02 09:46:21;;;;;;;2.53;2.17;;;24.00;51.80;;;;;;4147116;28;20050;-54
2021/09/02 09:48:40;;;;;;;3.40;2.30;;;24.00;51.80;;;;;;4163229;28;20092;-55
2021/09/02 09:50:43;;;;;;;3.35;2.30;;;24.00;51.60;;;;;;4164370;28;20084;-51
2021/09/02 09:52:45;;;;;;;2.83;2.15;;;24.00;51.60;;;;;;4163685;28;20046;-54
2021/09/02 09:54:48;;;;;;;3.35;2.08;;;24.00;51.70;;;;;;4147006;28;20594;-52
2021/09/02 09:56:51;;;;;;;2.70;2.25;;;24.00;51.60;;;;;;4163270;28;20081;-53
2021/09/02 09:58:55;;;;;;;3.15;2.30;;;24.00;51.80;;;;;;4146888;28;20050;-52
2021/09/02 10:01:00;;;;;;;2.38;1.90;;;24.00;51.60;;;;;;4146936;28;20042;-54
2021/09/02 10:03:03;;;;;;;2.83;2.25;;;24.00;51.70;;;;;;4164202;28;20045;-54
2021/09/02 10:05:08;;;;;;;2.60;2.28;;;24.00;51.50;;;;;;4162383;28;20042;-50
2021/09/02 10:07:16;;;;;;;2.83;2.53;;;24.00;51.50;;;;;;4162919;28;20052;-51
2021/09/02 10:09:19;;;;;;;4.32;2.58;;;24.00;51.80;;;;;;4163047;28;20060;-55
2021/09/02 10:11:23;;;;;;;3.38;2.08;;;24.00;51.50;;;;;;4163406;28;20065;-56
2021/09/02 10:13:25;;;;;;;4.07;2.30;;;24.00;51.60;;;;;;4164179;28;20080;-48
2021/09/02 10:15:30;;;;;;;2.88;2.00;;;24.00;51.50;;;;;;4164824;28;20101;-49
2021/09/02 10:17:34;;;;;;;2.42;2.00;;;24.00;51.60;;;;;;4180334;28;20164;-46
2021/09/02 10:19:38;;;;;;;2.83;2.30;;;24.00;51.50;;;;;;4163910;28;20081;-46
2021/09/02 10:21:40;;;;;;;2.27;2.00;;;24.00;51.60;;;;;;4164009;28;20057;-47
2021/09/02 10:23:43;;;;;;;3.05;2.45;;;23.90;51.50;;;;;;4163682;28;20337;-47
2021/09/02 10:25:46;;;;;;;3.55;2.30;;;24.00;51.50;;;;;;4164651;28;20038;-48
2021/09/02 10:28:02;;;;;;;2.97;2.10;;;24.00;51.50;;;;;;4163917;28;20053;-46
2021/09/02 10:30:21;;;;;;;2.42;2.22;;;24.00;51.50;;;;;;4163808;28;20046;-47
2021/09/02 10:32:24;;;;;;;2.17;1.95;;;24.00;51.50;;;;;;4164003;28;20053;-49
2021/09/02 10:34:28;;;;;;;2.28;2.08;;;24.00;51.50;;;;;;4163755;28;20050;-46
2021/09/02 10:36:30;;;;;;;3.53;2.35;;;24.00;51.70;;;;;;4147682;28;20082;-46
2021/09/02 10:38:40;;;;;;;2.25;1.90;;;24.00;51.60;;;;;;4163816;28;20065;-47
2021/09/02 10:40:44;;;;;;;3.63;2.08;;;24.00;51.50;;;;;;4163706;28;20053;-46
2021/09/02 10:42:49;;;;;;;2.17;1.92;;;24.00;51.50;;;;;;4147467;28;20047;-48